Time;durP1;ratioP1;P1;durP2;ratioP2;P2;SDS_P1;SDS_P2;PMS_P1;PMS_P2;Temp;Humidity;BMP_temperature;BMP_pressure;BME280_temperature;BME280_humidity;BME280_pressure;Samples;Min_cycle;Max_cycle;Signal;HPM_P1;HPM_P2
2022/05/07 00:00:32;;;;;;;5.83;3.23;;;10.50;99.90;;;;;;4269512;28;10020729;-74
2022/05/07 00:02:57;;;;;;;4.78;4.20;;;10.50;99.90;;;;;;4956424;28;20078;-73
2022/05/07 00:05:24;;;;;;;6.53;4.20;;;10.40;99.90;;;;;;4952543;28;20034;-74
2022/05/07 00:07:50;;;;;;;5.28;4.22;;;10.40;99.90;;;;;;4960978;28;20114;-74
2022/05/07 00:10:15;;;;;;;5.13;3.90;;;10.40;99.90;;;;;;4958128;28;20125;-74
2022/05/07 00:12:41;;;;;;;6.47;4.40;;;10.40;99.90;;;;;;4957873;28;20089;-74
2022/05/07 00:15:08;;;;;;;5.70;3.92;;;10.30;99.90;;;;;;4958795;28;20049;-74
2022/05/07 00:20:17;;;;;;;10.85;4.03;;;10.30;99.90;;;;;;4957671;28;20034;-74
2022/05/07 00:22:43;;;;;;;4.13;3.72;;;10.30;99.90;;;;;;4957502;28;20035;-74
2022/05/07 00:25:09;;;;;;;4.88;3.90;;;10.30;99.90;;;;;;4961251;28;20534;-74
2022/05/07 00:27:35;;;;;;;4.75;4.07;;;10.30;99.90;;;;;;4963552;28;20503;-74
2022/05/07 00:30:01;;;;;;;4.88;4.13;;;10.20;99.90;;;;;;4961158;28;20117;-74
2022/05/07 00:32:26;;;;;;;9.20;4.15;;;10.20;99.90;;;;;;4963503;28;20031;-74
2022/05/07 00:34:52;;;;;;;6.75;4.30;;;10.20;99.90;;;;;;4957468;28;20031;-74
2022/05/07 00:37:18;;;;;;;6.05;4.00;;;10.20;99.90;;;;;;4962792;28;20027;-73
2022/05/07 00:39:43;;;;;;;4.55;4.10;;;10.20;99.90;;;;;;4952572;28;20079;-73
2022/05/07 00:42:09;;;;;;;6.20;4.60;;;10.20;99.90;;;;;;4957170;28;20490;-74
2022/05/07 00:44:35;;;;;;;5.50;4.22;;;10.10;99.90;;;;;;4962178;28;20046;-74
2022/05/07 00:47:26;;;;;;;6.97;4.07;;;10.10;99.90;;;;;;4962002;28;20035;-73
2022/05/07 00:51:33;;;;;;;5.25;4.13;;;10.00;99.90;;;;;;4955267;28;20559;-73
2022/05/07 00:52:46;;;;;;;7.43;4.53;;;10.00;99.90;;;;;;4960804;28;20166;-73
2022/05/07 00:55:12;;;;;;;10.30;4.43;;;9.90;99.90;;;;;;4963990;28;20039;-73
2022/05/07 00:57:39;;;;;;;5.78;4.50;;;9.90;99.90;;;;;;4961926;28;20027;-74
2022/05/07 01:00:06;;;;;;;5.82;4.30;;;9.90;99.90;;;;;;4960209;28;20027;-73
2022/05/07 01:02:32;;;;;;;5.30;4.10;;;9.80;99.90;;;;;;4966505;28;20038;-73
2022/05/07 01:04:57;;;;;;;5.88;4.43;;;9.80;99.90;;;;;;4967111;28;20026;-73
2022/05/07 01:07:23;;;;;;;4.35;3.95;;;9.80;99.90;;;;;;4961126;28;20514;-73
2022/05/07 01:09:49;;;;;;;5.13;4.28;;;9.80;99.90;;;;;;4964076;28;20549;-73
2022/05/07 01:12:16;;;;;;;7.30;4.63;;;9.80;99.90;;;;;;4959045;28;20042;-73
2022/05/07 01:14:41;;;;;;;5.75;4.22;;;9.80;99.90;;;;;;4956602;28;20024;-73
2022/05/07 01:17:07;;;;;;;5.45;3.90;;;9.70;99.90;;;;;;4962093;28;20030;-73
2022/05/07 01:19:33;;;;;;;5.68;4.07;;;9.70;99.90;;;;;;4960247;28;20486;-73
2022/05/07 01:21:59;;;;;;;5.30;4.10;;;9.70;99.90;;;;;;4961680;28;20160;-73
2022/05/07 01:24:25;;;;;;;4.88;3.90;;;9.70;99.90;;;;;;4958594;28;20035;-73
2022/05/07 01:26:51;;;;;;;6.10;4.03;;;9.60;99.90;;;;;;4962296;28;20344;-74
2022/05/07 01:29:16;;;;;;;5.30;4.35;;;9.60;99.90;;;;;;4963042;28;20031;-74
2022/05/07 01:31:42;;;;;;;7.03;4.18;;;9.60;99.90;;;;;;4961378;28;20027;-74
2022/05/07 01:34:07;;;;;;;4.60;3.80;;;9.60;99.90;;;;;;4959518;28;20110;-74
2022/05/07 01:36:33;;;;;;;7.25;4.13;;;9.60;99.90;;;;;;4963973;28;20258;-73
2022/05/07 01:38:58;;;;;;;7.68;5.00;;;9.50;99.90;;;;;;4960230;28;20023;-73
2022/05/07 01:41:24;;;;;;;6.50;5.00;;;9.50;99.90;;;;;;4954703;28;20463;-74
2022/05/07 01:43:50;;;;;;;5.97;4.57;;;9.50;99.90;;;;;;4961225;28;20035;-74
2022/05/07 01:49:00;;;;;;;7.53;4.53;;;9.50;99.90;;;;;;4956107;28;20150;-74
2022/05/07 01:51:26;;;;;;;6.20;4.32;;;9.50;99.90;;;;;;4943677;28;20129;-74
2022/05/07 01:53:51;;;;;;;5.55;4.70;;;9.50;99.90;;;;;;4959562;28;20037;-74
2022/05/07 01:56:17;;;;;;;6.82;4.20;;;9.50;99.90;;;;;;4959235;28;20342;-73
2022/05/07 01:58:42;;;;;;;5.57;4.07;;;9.50;99.90;;;;;;4964944;28;20023;-74
2022/05/07 02:01:10;;;;;;;4.75;4.00;;;9.40;99.90;;;;;;4962162;28;20422;-74
2022/05/07 02:03:37;;;;;;;6.05;4.60;;;9.40;99.90;;;;;;4965886;28;20082;-73
2022/05/07 02:06:02;;;;;;;6.68;4.38;;;9.40;99.90;;;;;;4964948;28;20066;-73
2022/05/07 02:08:28;;;;;;;5.93;4.10;;;9.40;99.90;;;;;;4965468;28;20334;-73
2022/05/07 02:10:54;;;;;;;4.82;3.63;;;9.30;99.90;;;;;;4958984;28;20341;-73
2022/05/07 02:13:19;;;;;;;4.40;4.00;;;9.30;99.90;;;;;;4959893;28;20590;-73
2022/05/07 02:15:45;;;;;;;5.72;4.43;;;9.30;99.90;;;;;;4962569;28;20034;-73
2022/05/07 02:18:10;;;;;;;5.85;4.05;;;9.30;99.90;;;;;;4961217;28;20069;-72
2022/05/07 02:20:36;;;;;;;4.63;3.55;;;9.20;99.90;;;;;;4959647;28;20023;-73
2022/05/07 02:23:02;;;;;;;4.70;4.05;;;9.20;99.90;;;;;;4951780;28;20500;-73
2022/05/07 02:25:27;;;;;;;4.25;3.53;;;9.20;99.90;;;;;;4964935;28;20039;-74
2022/05/07 02:27:53;;;;;;;5.40;3.88;;;9.10;99.90;;;;;;4962521;28;20394;-73
2022/05/07 02:30:19;;;;;;;4.28;3.88;;;9.20;99.90;;;;;;4955860;28;20019;-73
2022/05/07 02:32:48;;;;;;;5.03;3.80;;;9.20;99.90;;;;;;4956014;28;20085;-73
2022/05/07 02:35:14;;;;;;;4.43;3.70;;;9.10;99.90;;;;;;4959946;28;20093;-73
2022/05/07 02:37:40;;;;;;;6.10;3.88;;;9.10;99.90;;;;;;4956555;28;20027;-73
2022/05/07 02:40:06;;;;;;;4.75;3.65;;;9.10;99.90;;;;;;4961215;28;20031;-73
2022/05/07 02:42:36;;;;;;;4.32;3.60;;;9.10;99.90;;;;;;4962534;28;20019;-74
2022/05/07 02:45:06;;;;;;;4.93;4.00;;;9.10;99.90;;;;;;4953438;28;20049;-73
2022/05/07 02:47:40;;;;;;;4.35;3.95;;;9.10;99.90;;;;;;4962673;28;20038;-73
2022/05/07 02:50:08;;;;;;;5.18;3.92;;;9.00;99.90;;;;;;4958811;28;20043;-73
2022/05/07 02:52:34;;;;;;;5.13;3.70;;;9.00;99.90;;;;;;4959514;28;20039;-73
2022/05/07 02:55:05;;;;;;;4.60;3.95;;;9.00;99.90;;;;;;4958598;28;20026;-73
2022/05/07 02:57:31;;;;;;;4.85;3.50;;;9.00;99.90;;;;;;4959536;28;20073;-73
2022/05/07 02:59:56;;;;;;;4.35;3.80;;;9.00;99.90;;;;;;4957369;28;20112;-73
2022/05/07 03:02:22;;;;;;;3.90;3.42;;;9.00;99.90;;;;;;4961666;28;20476;-74
2022/05/07 03:04:49;;;;;;;5.45;3.70;;;8.90;99.90;;;;;;4961105;28;20035;-74
2022/05/07 03:07:15;;;;;;;4.47;4.00;;;8.90;99.90;;;;;;4957961;28;20042;-73
2022/05/07 03:09:41;;;;;;;4.00;3.60;;;8.90;99.90;;;;;;4953975;28;20030;-74
2022/05/07 03:12:09;;;;;;;5.13;4.38;;;8.90;99.90;;;;;;4964289;28;20518;-74
2022/05/07 03:14:34;;;;;;;4.93;4.05;;;8.90;99.90;;;;;;4957541;28;20041;-73
2022/05/07 03:17:00;;;;;;;7.90;4.72;;;8.90;99.90;;;;;;4957574;28;20023;-76
2022/05/07 03:19:26;;;;;;;5.70;4.70;;;8.90;99.90;;;;;;4962706;28;20515;-73
2022/05/07 03:21:51;;;;;;;8.40;4.97;;;8.80;99.90;;;;;;4951855;28;20026;-73
2022/05/07 03:24:17;;;;;;;9.13;5.63;;;;;;;;;;4955228;28;20026;-73
2022/05/07 03:26:44;;;;;;;9.82;5.18;;;8.70;99.90;;;;;;4961743;28;20491;-73
2022/05/07 03:29:09;;;;;;;9.50;5.38;;;8.70;99.90;;;;;;4959592;28;20035;-73
2022/05/07 03:31:35;;;;;;;10.18;5.60;;;8.60;99.90;;;;;;4956335;28;20061;-75
2022/05/07 03:34:01;;;;;;;9.38;6.20;;;8.60;99.90;;;;;;4960257;28;20046;-73
2022/05/07 03:36:26;;;;;;;6.72;5.63;;;8.50;99.90;;;;;;4960666;28;20114;-73
2022/05/07 03:38:52;;;;;;;8.70;6.15;;;8.50;99.90;;;;;;4964306;28;20045;-73
2022/05/07 03:41:21;;;;;;;7.65;6.10;;;8.50;99.90;;;;;;4960317;28;20035;-75
2022/05/07 03:43:46;;;;;;;7.60;6.50;;;8.40;99.90;;;;;;4960566;28;20367;-75
2022/05/07 03:46:12;;;;;;;7.00;6.05;;;8.40;99.90;;;;;;4962019;28;20126;-75
2022/05/07 03:48:38;;;;;;;7.68;5.95;;;8.40;99.90;;;;;;4955601;28;20031;-75
2022/05/07 03:51:04;;;;;;;7.60;5.90;;;8.30;99.90;;;;;;4961334;28;20109;-73
2022/05/07 03:53:29;;;;;;;6.47;5.13;;;8.30;99.90;;;;;;4960519;28;20045;-75
2022/05/07 03:55:56;;;;;;;6.47;5.40;;;8.30;99.90;;;;;;4962127;28;20257;-75
2022/05/07 03:58:22;;;;;;;7.25;5.07;;;8.30;99.90;;;;;;4959742;28;20479;-75
2022/05/07 04:00:47;;;;;;;6.78;5.30;;;8.30;99.90;;;;;;4946711;28;20030;-75
2022/05/07 04:03:13;;;;;;;10.10;5.90;;;8.30;99.90;;;;;;4958644;28;20023;-75
2022/05/07 04:05:39;;;;;;;7.38;5.60;;;8.40;99.90;;;;;;4963079;28;20523;-75
2022/05/07 04:08:06;;;;;;;6.95;5.32;;;8.40;99.90;;;;;;4974965;28;20022;-75
2022/05/07 04:10:31;;;;;;;5.70;4.80;;;8.50;99.90;;;;;;4960960;28;20023;-75
2022/05/07 04:12:57;;;;;;;7.75;5.38;;;8.50;99.90;;;;;;4960069;28;20035;-75
2022/05/07 04:15:23;;;;;;;6.45;5.25;;;8.50;99.90;;;;;;4957561;28;20034;-75
2022/05/07 04:17:49;;;;;;;6.07;5.18;;;8.60;99.90;;;;;;4961245;28;20030;-75
2022/05/07 04:20:16;;;;;;;8.52;5.72;;;8.60;99.90;;;;;;4957380;28;20533;-75
2022/05/07 04:22:42;;;;;;;10.70;5.85;;;8.60;99.90;;;;;;4962682;28;20042;-75
2022/05/07 04:25:09;;;;;;;6.65;5.60;;;8.60;99.90;;;;;;4965702;28;20022;-75
2022/05/07 04:27:35;;;;;;;9.50;5.82;;;8.70;99.90;;;;;;4968782;28;20109;-75
2022/05/07 04:30:01;;;;;;;7.93;5.80;;;8.70;99.90;;;;;;4961546;28;20423;-75
2022/05/07 04:32:27;;;;;;;6.70;5.45;;;8.80;99.90;;;;;;4964484;28;20081;-74
2022/05/07 04:34:57;;;;;;;8.50;5.35;;;8.80;99.90;;;;;;4960126;28;20081;-75
2022/05/07 04:37:24;;;;;;;6.75;5.30;;;8.80;99.90;;;;;;4960827;28;20030;-75
2022/05/07 04:39:49;;;;;;;7.53;5.43;;;8.80;99.90;;;;;;4961647;28;20023;-74
2022/05/07 04:42:15;;;;;;;7.60;5.75;;;8.90;99.90;;;;;;4965761;28;20035;-75
2022/05/07 04:44:41;;;;;;;7.22;5.78;;;8.90;99.90;;;;;;4958053;28;20483;-75
2022/05/07 04:47:06;;;;;;;9.18;5.88;;;8.90;99.90;;;;;;4963704;28;20057;-75
2022/05/07 04:49:33;;;;;;;7.05;5.93;;;9.00;99.90;;;;;;4965405;28;20038;-74
2022/05/07 04:51:58;;;;;;;12.45;6.60;;;9.00;99.90;;;;;;4968085;28;20026;-75
2022/05/07 04:54:24;;;;;;;8.00;6.65;;;9.10;99.90;;;;;;4965161;28;20519;-75
2022/05/07 04:56:51;;;;;;;11.80;6.35;;;9.10;99.90;;;;;;4962863;28;20031;-75
2022/05/07 04:59:19;;;;;;;8.32;6.15;;;9.10;99.90;;;;;;4961313;28;20047;-75
2022/05/07 05:01:44;;;;;;;10.05;6.07;;;9.10;99.90;;;;;;4961455;28;20053;-75
2022/05/07 05:04:11;;;;;;;10.07;7.00;;;9.10;99.90;;;;;;4963131;28;20103;-75
2022/05/07 05:06:37;;;;;;;11.27;6.65;;;9.10;99.90;;;;;;4967535;28;20252;-75
2022/05/07 05:09:05;;;;;;;11.45;7.75;;;9.10;99.90;;;;;;4963273;28;20031;-75
2022/05/07 05:11:31;;;;;;;7.43;6.60;;;9.10;99.90;;;;;;4961486;28;20502;-75
2022/05/07 05:13:57;;;;;;;11.60;7.97;;;9.20;99.90;;;;;;4957478;28;20039;-75
2022/05/07 05:16:23;;;;;;;8.60;7.38;;;9.20;99.90;;;;;;4955825;28;20035;-75
2022/05/07 05:18:49;;;;;;;9.15;6.32;;;9.30;99.90;;;;;;4961805;28;20171;-75
2022/05/07 05:21:15;;;;;;;9.20;6.30;;;9.30;99.90;;;;;;4966360;28;20054;-75
2022/05/07 05:23:40;;;;;;;7.65;5.90;;;9.40;99.90;;;;;;4965334;28;20085;-75
2022/05/07 05:26:06;;;;;;;7.78;5.72;;;9.50;99.90;;;;;;4964310;28;20043;-75
2022/05/07 05:28:32;;;;;;;9.48;5.35;;;9.60;99.90;;;;;;4954999;28;20051;-75
2022/05/07 05:30:58;;;;;;;8.95;5.70;;;9.70;99.90;;;;;;4960444;28;20031;-75
2022/05/07 05:33:24;;;;;;;7.63;5.50;;;9.80;99.90;;;;;;4962279;28;20073;-74
2022/05/07 05:35:50;;;;;;;9.10;6.03;;;9.90;99.90;;;;;;4961502;28;20054;-75
2022/05/07 05:38:15;;;;;;;8.13;5.53;;;9.90;99.90;;;;;;4957089;28;20384;-74
2022/05/07 05:40:42;;;;;;;7.75;5.25;;;9.90;99.90;;;;;;4959226;28;20042;-75
2022/05/07 05:43:09;;;;;;;8.98;5.38;;;9.90;99.90;;;;;;4964072;28;20030;-75
2022/05/07 05:45:35;;;;;;;7.25;5.30;;;10.00;99.90;;;;;;4265014;28;10001350;-74
2022/05/07 05:48:01;;;;;;;8.07;5.55;;;10.00;99.90;;;;;;4962064;28;21412;-74
2022/05/07 05:50:29;;;;;;;7.90;5.57;;;10.10;99.90;;;;;;4956590;28;20543;-74
2022/05/07 05:52:55;;;;;;;8.55;5.53;;;10.30;99.90;;;;;;4956544;28;20507;-74
2022/05/07 05:55:21;;;;;;;6.90;4.90;;;10.40;99.90;;;;;;4950029;28;20153;-75
2022/05/07 05:57:48;;;;;;;7.45;5.13;;;10.50;99.90;;;;;;4959390;28;20062;-73
2022/05/07 06:00:15;;;;;;;6.45;5.03;;;10.50;99.90;;;;;;4959588;28;20022;-73
2022/05/07 06:02:44;;;;;;;7.97;5.00;;;10.60;99.90;;;;;;4944387;28;20272;-73
2022/05/07 06:05:09;;;;;;;9.65;4.97;;;10.60;99.90;;;;;;4949847;28;20392;-73
2022/05/07 06:07:35;;;;;;;8.90;4.80;;;10.80;99.90;;;;;;4957399;28;20046;-73
2022/05/07 06:10:01;;;;;;;7.40;5.15;;;10.80;99.90;;;;;;4955179;28;20189;-73
2022/05/07 06:12:26;;;;;;;10.05;5.15;;;10.80;99.90;;;;;;4957468;28;20033;-74
2022/05/07 06:14:54;;;;;;;6.70;4.72;;;10.80;99.90;;;;;;4961674;28;20062;-74
2022/05/07 06:17:20;;;;;;;6.05;5.03;;;10.90;99.90;;;;;;4960437;28;20035;-74
2022/05/07 06:19:45;;;;;;;7.40;5.07;;;10.90;99.90;;;;;;4958223;28;20484;-74
2022/05/07 06:22:11;;;;;;;9.85;5.22;;;11.00;99.90;;;;;;4959253;28;20038;-74
2022/05/07 06:27:33;;;;;;;8.20;5.75;;;11.10;99.90;;;;;;4950571;28;20041;-74
2022/05/07 06:30:03;;;;;;;5.88;5.28;;;11.10;99.90;;;;;;4609854;28;10000126;-73
2022/05/07 06:32:33;;;;;;;7.00;5.03;;;11.20;99.90;;;;;;4955159;28;20031;-74
2022/05/07 06:34:59;;;;;;;7.30;5.22;;;11.20;99.90;;;;;;4948144;28;20039;-74
2022/05/07 06:37:25;;;;;;;6.75;4.80;;;11.30;99.90;;;;;;4956214;28;20574;-73
2022/05/07 06:39:51;;;;;;;6.03;5.00;;;11.40;99.90;;;;;;4961611;28;20038;-74
2022/05/07 06:42:17;;;;;;;9.00;5.45;;;11.50;99.90;;;;;;4956029;28;20026;-74
2022/05/07 06:44:42;;;;;;;7.28;5.18;;;11.70;99.90;;;;;;4964348;28;20027;-75
2022/05/07 06:47:08;;;;;;;5.63;4.47;;;11.90;99.90;;;;;;4963984;28;20046;-75
2022/05/07 06:49:34;;;;;;;6.00;5.03;;;12.00;99.90;;;;;;4961192;28;20058;-75
2022/05/07 06:51:59;;;;;;;8.88;5.18;;;12.30;99.90;;;;;;4958539;28;20392;-75
2022/05/07 06:54:25;;;;;;;5.20;4.70;;;12.50;99.90;;;;;;4966341;28;20046;-75
2022/05/07 06:56:51;;;;;;;6.63;4.80;;;12.80;99.90;;;;;;4958899;28;20030;-75
2022/05/07 06:59:16;;;;;;;6.10;4.82;;;13.00;99.90;;;;;;4961073;28;20026;-75
2022/05/07 07:01:42;;;;;;;8.15;5.00;;;13.20;99.90;;;;;;4954714;28;20023;-75
2022/05/07 07:04:07;;;;;;;6.05;4.68;;;13.50;99.90;;;;;;4958138;28;20545;-75
2022/05/07 07:06:33;;;;;;;5.65;4.45;;;13.70;99.90;;;;;;4957725;28;20121;-75
2022/05/07 07:08:59;;;;;;;6.03;4.50;;;13.90;99.90;;;;;;4961090;28;20411;-75
2022/05/07 07:11:27;;;;;;;6.78;4.70;;;14.10;99.90;;;;;;4958623;28;20030;-75
2022/05/07 07:13:53;;;;;;;6.32;4.32;;;14.20;99.90;;;;;;4958298;28;20110;-75
2022/05/07 07:16:18;;;;;;;7.70;4.63;;;14.50;99.90;;;;;;4962899;28;20181;-75
2022/05/07 07:18:44;;;;;;;7.82;4.63;;;14.70;99.90;;;;;;4960514;28;20037;-75
2022/05/07 07:21:11;;;;;;;7.50;4.60;;;14.90;99.90;;;;;;4954510;28;20059;-75
2022/05/07 07:23:37;;;;;;;5.22;4.72;;;15.00;99.90;;;;;;4957777;28;20039;-75
2022/05/07 07:26:04;;;;;;;6.65;4.65;;;15.00;99.90;;;;;;4962523;28;20062;-75
2022/05/07 07:28:30;;;;;;;6.38;4.82;;;15.10;99.90;;;;;;4960477;28;20026;-75
2022/05/07 07:30:58;;;;;;;7.18;5.13;;;15.30;99.90;;;;;;4962922;28;20146;-75
2022/05/07 07:33:23;;;;;;;7.43;4.82;;;15.30;99.90;;;;;;4965227;28;20062;-75
2022/05/07 07:35:49;;;;;;;4.25;3.78;;;;;;;;;;4963573;28;20073;-75
2022/05/07 07:38:15;;;;;;;6.53;4.70;;;15.70;99.90;;;;;;4956712;28;20054;-75
2022/05/07 07:40:43;;;;;;;7.43;4.00;;;15.80;99.90;;;;;;4961068;28;20023;-75
2022/05/07 07:43:10;;;;;;;5.00;3.92;;;16.10;99.90;;;;;;4962427;28;20035;-75
2022/05/07 07:48:21;;;;;;;5.13;3.63;;;16.00;99.90;;;;;;4960916;28;20570;-75
2022/05/07 07:50:49;;;;;;;8.75;4.05;;;16.10;99.90;;;;;;4960754;28;20059;-76
2022/05/07 07:53:14;;;;;;;4.22;3.83;;;16.10;99.90;;;;;;4963046;28;20047;-75
2022/05/07 07:55:40;;;;;;;5.00;4.03;;;16.30;99.90;;;;;;4962016;28;20647;-75
2022/05/07 07:58:08;;;;;;;4.63;3.65;;;16.40;99.90;;;;;;4964444;28;20018;-75
2022/05/07 08:00:38;;;;;;;9.27;4.43;;;16.60;99.90;;;;;;4959930;28;20027;-75
2022/05/07 08:03:09;;;;;;;7.40;4.43;;;16.80;99.90;;;;;;4962824;28;20037;-75
2022/05/07 08:05:36;;;;;;;5.47;4.00;;;17.10;99.90;;;;;;4963599;28;20035;-76
2022/05/07 08:13:37;;;;;;;7.75;4.20;;;17.70;99.90;;;;;;4974698;28;20022;-77
2022/05/07 08:16:04;;;;;;;5.75;4.07;;;17.70;99.90;;;;;;4963649;28;20031;-77
2022/05/07 08:18:30;;;;;;;6.13;4.43;;;17.80;99.90;;;;;;4957397;28;20754;-82
2022/05/07 08:20:56;;;;;;;6.10;4.28;;;17.70;99.90;;;;;;4960280;28;20089;-76
2022/05/07 08:23:22;;;;;;;4.72;4.15;;;17.70;99.90;;;;;;4959778;28;20054;-76
2022/05/07 08:25:49;;;;;;;7.43;4.90;;;17.80;99.90;;;;;;4960888;28;20041;-75
2022/05/07 08:28:15;;;;;;;8.23;4.70;;;18.00;99.90;;;;;;4964850;28;20050;-75
2022/05/07 08:30:41;;;;;;;6.65;4.70;;;18.10;99.90;;;;;;4953658;28;20113;-75
2022/05/07 08:33:07;;;;;;;6.65;4.93;;;18.10;99.90;;;;;;4957642;28;20234;-75
2022/05/07 08:35:32;;;;;;;5.50;4.55;;;18.20;99.90;;;;;;4959283;28;20047;-74
2022/05/07 08:37:58;;;;;;;6.05;4.70;;;18.30;99.90;;;;;;4963149;28;20627;-73
2022/05/07 08:40:25;;;;;;;11.10;6.00;;;18.30;99.90;;;;;;4955279;28;20026;-74
2022/05/07 08:42:51;;;;;;;9.10;5.88;;;18.40;99.90;;;;;;4966972;28;20092;-75
2022/05/07 08:45:17;;;;;;;8.30;5.53;;;18.60;99.90;;;;;;4963952;28;20486;-75
2022/05/07 08:47:44;;;;;;;8.15;6.63;;;18.80;99.90;;;;;;4965086;28;20713;-75
2022/05/07 08:50:12;;;;;;;9.40;5.97;;;18.90;99.90;;;;;;4960800;28;20047;-75
2022/05/07 08:52:41;;;;;;;9.20;5.70;;;19.00;99.90;;;;;;4960017;28;20032;-75
2022/05/07 08:55:10;;;;;;;7.97;5.53;;;19.00;99.90;;;;;;4963935;28;20369;-75
2022/05/07 08:57:36;;;;;;;7.85;5.97;;;19.00;99.90;;;;;;4963380;28;20212;-74
2022/05/07 09:00:04;;;;;;;12.57;6.15;;;19.20;99.90;;;;;;4960538;28;20042;-72
2022/05/07 09:02:38;;;;;;;9.00;5.70;;;19.30;99.90;;;;;;4954846;28;20042;-75
2022/05/07 09:05:05;;;;;;;10.50;5.68;;;19.50;99.90;;;;;;4960426;28;20113;-75
2022/05/07 09:07:31;;;;;;;8.05;5.53;;;19.60;99.90;;;;;;4960480;28;20102;-75
2022/05/07 09:09:57;;;;;;;13.23;6.40;;;19.80;99.90;;;;;;4950607;28;20039;-75
2022/05/07 09:12:25;;;;;;;12.40;6.75;;;19.90;99.90;;;;;;4966471;28;20550;-72
2022/05/07 09:14:51;;;;;;;9.80;6.05;;;;;;;;;;4961863;28;20035;-73
2022/05/07 09:17:19;;;;;;;9.38;6.20;;;20.40;99.90;;;;;;4964667;28;20030;-71
2022/05/07 09:19:45;;;;;;;10.95;6.43;;;20.60;99.90;;;;;;4964258;28;20027;-71
2022/05/07 09:22:11;;;;;;;13.25;6.40;;;20.70;99.90;;;;;;4963529;28;20233;-72
2022/05/07 09:24:38;;;;;;;13.65;7.30;;;20.70;99.90;;;;;;4963013;28;20035;-73
2022/05/07 09:27:07;;;;;;;14.07;7.28;;;20.80;99.90;;;;;;4965237;28;20027;-72
2022/05/07 09:29:33;;;;;;;10.35;6.90;;;20.80;99.90;;;;;;4959103;28;20026;-71
2022/05/07 09:32:16;;;;;;;11.50;7.18;;;20.80;99.90;;;;;;4957497;28;20430;-71
2022/05/07 09:37:44;;;;;;;13.07;7.30;;;21.10;99.90;;;;;;4953281;28;20088;-72
2022/05/07 09:40:12;;;;;;;12.55;6.82;;;21.20;99.90;;;;;;4960071;28;20078;-72
2022/05/07 09:42:39;;;;;;;9.73;6.63;;;21.30;99.90;;;;;;4964659;28;20034;-72
2022/05/07 09:45:06;;;;;;;10.05;6.30;;;21.40;99.90;;;;;;4958609;28;20023;-70
2022/05/07 09:47:33;;;;;;;10.93;6.65;;;21.40;91.20;;;;;;4968913;28;20057;-73
2022/05/07 09:57:30;;;;;;;8.48;6.00;;;21.30;90.40;;;;;;4959218;28;21620;-71
2022/05/07 09:58:19;;;;;;;9.70;5.63;;;21.50;88.00;;;;;;4963849;28;20115;-71
2022/05/07 10:01:25;;;;;;;11.10;6.03;;;21.60;90.00;;;;;;4956447;28;20074;-71
2022/05/07 10:04:23;;;;;;;8.13;5.60;;;21.90;86.90;;;;;;4961367;28;20105;-70
2022/05/07 10:07:19;;;;;;;11.93;6.70;;;22.10;86.30;;;;;;4957459;28;20214;-71
2022/05/07 10:10:16;;;;;;;6.78;5.20;;;22.30;81.00;;;;;;4956460;28;20027;-71
2022/05/07 10:12:46;;;;;;;9.20;6.28;;;22.40;83.90;;;;;;4964444;28;20491;-71
2022/05/07 10:15:15;;;;;;;10.52;6.03;;;22.60;79.00;;;;;;4961512;28;20041;-71
2022/05/07 10:17:43;;;;;;;8.18;5.35;;;22.60;75.80;;;;;;4964120;28;20058;-71
2022/05/07 10:20:11;;;;;;;7.22;6.30;;;22.70;79.40;;;;;;4962444;28;20483;-71
2022/05/07 10:22:37;;;;;;;11.48;7.93;;;22.90;78.60;;;;;;4966517;28;20068;-71
2022/05/07 10:25:09;;;;;;;10.07;6.68;;;23.10;75.90;;;;;;4959947;28;20035;-71
2022/05/07 10:27:43;;;;;;;10.52;6.20;;;23.20;74.90;;;;;;4968025;28;20062;-71
2022/05/07 10:30:21;;;;;;;8.98;6.15;;;23.10;75.00;;;;;;4960334;28;20063;-71
2022/05/07 10:32:58;;;;;;;10.20;7.15;;;23.20;75.10;;;;;;4960714;28;20061;-71
2022/05/07 10:35:52;;;;;;;8.93;6.28;;;23.20;75.40;;;;;;4958753;28;20027;-72
2022/05/07 10:38:28;;;;;;;8.88;6.43;;;23.20;72.40;;;;;;4966190;28;20168;-71
2022/05/07 10:41:03;;;;;;;10.27;7.30;;;23.00;70.40;;;;;;4958215;28;20090;-72
2022/05/07 10:43:34;;;;;;;9.57;6.90;;;22.90;70.50;;;;;;4965791;28;20027;-71
2022/05/07 10:46:03;;;;;;;13.00;7.97;;;22.80;69.90;;;;;;4968941;28;20039;-71
2022/05/07 10:48:29;;;;;;;8.90;6.95;;;22.50;69.20;;;;;;4965176;28;20034;-71
2022/05/07 10:51:00;;;;;;;11.95;8.18;;;22.30;71.20;;;;;;4961920;28;20064;-71
2022/05/07 10:53:36;;;;;;;9.75;7.70;;;22.40;70.10;;;;;;4963161;28;20030;-71
2022/05/07 10:56:02;;;;;;;8.18;5.75;;;22.40;69.60;;;;;;4952841;28;20038;-71
2022/05/07 10:58:29;;;;;;;10.30;6.53;;;22.50;69.90;;;;;;4272373;28;10001243;-71
2022/05/07 11:00:58;;;;;;;7.45;5.57;;;22.50;72.20;;;;;;4926803;28;20047;-71
2022/05/07 11:03:27;;;;;;;7.13;5.03;;;;;;;;;;4927088;28;20046;-71
2022/05/07 11:06:00;;;;;;;9.55;6.70;;;22.70;72.60;;;;;;4926665;28;20285;-71
2022/05/07 11:08:29;;;;;;;;;;;22.80;72.00;;;;;;4925520;29;20036;-71
2022/05/07 11:11:08;;;;;;;12.38;6.95;;;22.90;72.70;;;;;;4924017;28;20052;-71
2022/05/07 11:13:52;;;;;;;11.27;7.07;;;22.90;68.70;;;;;;4926349;29;20483;-70
2022/05/07 11:16:18;;;;;;;14.02;7.70;;;22.60;68.60;;;;;;4927346;28;20048;-71
2022/05/07 11:18:51;;;;;;;11.52;6.68;;;22.40;68.10;;;;;;4928573;29;20114;-71
2022/05/07 11:21:22;;;;;;;8.93;6.05;;;22.30;70.40;;;;;;4927326;28;20066;-70
2022/05/07 11:23:56;;;;;;;9.40;6.40;;;22.30;71.70;;;;;;4938306;28;20126;-70
2022/05/07 11:26:22;;;;;;;9.18;6.30;;;22.40;70.60;;;;;;4929253;29;20038;-70
2022/05/07 11:28:50;;;;;;;11.80;6.43;;;22.50;72.60;;;;;;4928514;29;20027;-71
2022/05/07 11:31:32;;;;;;;8.82;6.43;;;22.60;71.10;;;;;;4935063;28;20093;-70
2022/05/07 11:34:06;;;;;;;8.70;5.80;;;22.70;69.50;;;;;;4960844;28;20034;-70
2022/05/07 11:36:32;;;;;;;8.10;6.18;;;22.70;69.80;;;;;;4960908;28;20288;-72
2022/05/07 11:39:00;;;;;;;8.85;5.65;;;22.80;70.30;;;;;;4946469;28;20443;-70
2022/05/07 11:41:26;;;;;;;8.35;6.25;;;22.80;69.40;;;;;;4956798;28;20035;-70
2022/05/07 11:46:49;;;;;;;8.60;5.82;;;22.80;72.70;;;;;;4964774;28;20049;-71
2022/05/07 11:49:15;;;;;;;7.93;5.75;;;22.90;70.90;;;;;;4957335;28;20328;-71
2022/05/07 11:51:40;;;;;;;7.07;5.55;;;23.00;67.60;;;;;;4963422;28;20083;-71
2022/05/07 11:54:09;;;;;;;10.45;6.70;;;23.00;69.30;;;;;;4957155;28;20081;-71
2022/05/07 11:56:47;;;;;;;7.95;5.72;;;23.00;68.30;;;;;;4954271;28;20035;-72
2022/05/07 11:59:16;;;;;;;8.52;5.40;;;23.00;68.60;;;;;;4954413;28;20035;-71
2022/05/07 12:01:49;;;;;;;9.52;6.05;;;23.00;66.90;;;;;;4956925;28;20026;-71
2022/05/07 12:04:14;;;;;;;8.07;5.10;;;23.00;68.10;;;;;;4963699;28;20738;-70
2022/05/07 12:06:40;;;;;;;6.80;5.25;;;23.00;68.60;;;;;;4963159;28;20039;-70
2022/05/07 12:09:13;;;;;;;8.27;5.40;;;23.10;69.30;;;;;;4956306;28;20098;-71
2022/05/07 12:11:40;;;;;;;8.70;6.20;;;23.30;67.80;;;;;;4950070;28;20058;-70
2022/05/07 12:14:06;;;;;;;7.97;5.30;;;23.60;65.70;;;;;;4955800;28;20027;-70
2022/05/07 12:19:26;;;;;;;8.07;5.18;;;24.10;65.30;;;;;;4958761;28;20049;-71
2022/05/07 12:30:04;;;;;;;7.72;4.88;;;24.40;64.40;;;;;;4959802;28;20038;-70
2022/05/07 12:32:30;;;;;;;6.05;4.90;;;24.20;63.60;;;;;;4963392;28;20034;-71
2022/05/07 12:34:55;;;;;;;8.30;5.50;;;24.10;65.70;;;;;;4614989;28;9999920;-70
2022/05/07 12:37:21;;;;;;;8.68;5.70;;;23.80;68.10;;;;;;4958227;28;20031;-70
2022/05/07 12:39:46;;;;;;;9.70;5.70;;;23.50;70.20;;;;;;4959775;28;20372;-71
2022/05/07 12:42:12;;;;;;;19.90;6.97;;;23.10;68.70;;;;;;4958289;28;20050;-71
2022/05/07 12:44:42;;;;;;;12.10;5.80;;;22.80;76.60;;;;;;4962679;28;20062;-71
2022/05/07 12:47:07;;;;;;;10.40;6.60;;;22.40;86.60;;;;;;4974068;28;20622;-70
2022/05/07 12:49:33;;;;;;;8.15;5.85;;;22.00;83.50;;;;;;4962029;28;20058;-70
2022/05/07 12:51:59;;;;;;;9.10;5.82;;;21.70;84.40;;;;;;4961262;28;20764;-71
2022/05/07 12:54:24;;;;;;;11.82;6.85;;;21.50;87.70;;;;;;4965024;28;20046;-71
2022/05/07 12:56:50;;;;;;;9.57;7.03;;;21.40;91.50;;;;;;4964849;28;20058;-71
2022/05/07 12:59:16;;;;;;;11.93;7.38;;;21.20;91.90;;;;;;4961082;28;20039;-70
2022/05/07 13:01:42;;;;;;;9.82;7.30;;;20.90;94.70;;;;;;4961793;28;20034;-71
2022/05/07 13:04:07;;;;;;;9.60;6.75;;;20.70;96.90;;;;;;4960774;28;20122;-71
2022/05/07 13:06:33;;;;;;;10.65;6.60;;;20.50;95.90;;;;;;4957372;28;20039;-72
2022/05/07 13:09:00;;;;;;;7.97;5.68;;;20.50;98.30;;;;;;4957961;28;20023;-72
2022/05/07 13:11:27;;;;;;;9.10;5.60;;;20.40;99.90;;;;;;4957816;28;20125;-72
2022/05/07 13:13:52;;;;;;;6.55;5.32;;;20.40;99.90;;;;;;4958059;28;20035;-71
2022/05/07 13:16:18;;;;;;;9.43;5.63;;;20.40;99.90;;;;;;4962561;28;20086;-70
2022/05/07 13:18:44;;;;;;;6.45;5.05;;;20.50;99.90;;;;;;4965124;28;20062;-73
2022/05/07 13:21:11;;;;;;;7.18;4.63;;;20.50;99.90;;;;;;4964890;28;20154;-73
2022/05/07 13:23:37;;;;;;;6.78;4.88;;;20.40;99.90;;;;;;4964869;28;20072;-73
2022/05/07 13:26:03;;;;;;;7.03;5.57;;;20.30;99.90;;;;;;4962697;28;20030;-73
2022/05/07 13:28:29;;;;;;;12.75;8.82;;;20.30;99.90;;;;;;4966518;28;20035;-73
2022/05/07 13:30:56;;;;;;;15.80;9.70;;;20.30;99.90;;;;;;4955758;28;20043;-73